createdAt,value
2022-08-12T00:02:57.785Z,21.42
2022-08-12T00:06:39.971Z,21.36
2022-08-12T00:10:20.284Z,21.29
2022-08-12T00:14:00.894Z,21.26
2022-08-12T00:17:42.439Z,21.32
2022-08-12T00:21:25.257Z,21.33
2022-08-12T00:25:06.447Z,21.27
2022-08-12T00:28:47.043Z,21.27
2022-08-12T00:32:35.268Z,21.30
2022-08-12T00:36:34.762Z,21.30
2022-08-12T00:40:16.309Z,21.20
2022-08-12T00:43:43.654Z,21.15
2022-08-12T00:47:05.374Z,21.09
2022-08-12T00:50:29.253Z,21.06
2022-08-12T00:53:50.814Z,20.99
2022-08-12T00:57:19.622Z,20.96
2022-08-12T01:00:44.855Z,20.96
2022-08-12T01:04:27.172Z,20.89
2022-08-12T01:08:14.840Z,20.82
2022-08-12T01:11:36.457Z,20.77
2022-08-12T01:15:01.337Z,20.74
2022-08-12T01:18:29.395Z,20.67
2022-08-12T01:21:55.728Z,20.68
2022-08-12T01:25:21.152Z,20.70
2022-08-12T01:28:45.359Z,20.67
2022-08-12T01:32:08.909Z,20.61
2022-08-12T01:35:33.009Z,20.60
2022-08-12T01:39:01.963Z,20.60
2022-08-12T01:42:26.337Z,20.61
2022-08-12T01:46:09.788Z,20.61
2022-08-12T01:50:02.739Z,20.52
2022-08-12T01:53:53.856Z,20.43
2022-08-12T01:57:58.702Z,20.39
2022-08-12T02:01:21.442Z,20.33
2022-08-12T02:05:35.171Z,20.29
2022-08-12T02:09:20.056Z,20.27
2022-08-12T02:12:56.368Z,20.20
2022-08-12T02:16:42.210Z,20.14
2022-08-12T02:20:12.988Z,20.17
2022-08-12T02:23:36.878Z,20.16
2022-08-12T02:27:02.335Z,20.19
2022-08-12T02:30:26.843Z,20.05
2022-08-12T02:34:04.342Z,20.06
2022-08-12T02:37:30.295Z,19.96
2022-08-12T02:40:57.544Z,19.92
2022-08-12T02:44:21.620Z,19.93
2022-08-12T02:47:58.779Z,19.90
2022-08-12T02:51:32.986Z,19.96
2022-08-12T02:55:06.985Z,19.83
2022-08-12T02:58:33.237Z,19.82
2022-08-12T03:01:57.101Z,19.82
2022-08-12T03:05:24.161Z,19.74
2022-08-12T03:08:51.856Z,19.71
2022-08-12T03:12:20.021Z,19.72
2022-08-12T03:15:45.037Z,19.72
2022-08-12T03:19:09.093Z,19.75
2022-08-12T03:22:34.117Z,19.69
2022-08-12T03:26:02.658Z,19.61
2022-08-12T03:29:30.855Z,19.68
2022-08-12T03:32:54.183Z,19.69
2022-08-12T03:36:20.472Z,19.71
2022-08-12T03:39:45.259Z,19.69
2022-08-12T03:43:27.188Z,19.65
2022-08-12T03:47:11.242Z,19.61
2022-08-12T03:50:51.574Z,19.54
2022-08-12T03:54:34.259Z,19.57
2022-08-12T03:58:14.725Z,19.47
2022-08-12T04:01:40.637Z,19.45
2022-08-12T04:05:03.096Z,19.43
2022-08-12T04:08:29.042Z,19.45
2022-08-12T04:12:09.115Z,19.48
2022-08-12T04:15:31.827Z,19.43
2022-08-12T04:18:56.653Z,19.43
2022-08-12T04:22:18.251Z,19.43
2022-08-12T04:25:43.395Z,19.44
2022-08-12T04:29:04.980Z,19.53
2022-08-12T04:32:26.728Z,19.48
2022-08-12T04:35:48.896Z,19.44
2022-08-12T04:39:12.069Z,19.55
2022-08-12T04:42:33.664Z,19.54
2022-08-12T04:45:56.239Z,19.51
2022-08-12T04:49:20.514Z,19.58
2022-08-12T04:52:45.029Z,19.65
2022-08-12T04:56:11.023Z,19.72
2022-08-12T04:59:46.394Z,19.79
2022-08-12T05:03:09.116Z,19.87
2022-08-12T05:06:33.136Z,20.08
2022-08-12T05:10:02.478Z,20.14
2022-08-12T05:13:30.441Z,20.22
2022-08-12T05:16:52.200Z,20.43
2022-08-12T05:20:19.867Z,20.61
2022-08-12T05:23:42.919Z,20.72
2022-08-12T05:27:04.694Z,20.91
2022-08-12T05:30:33.555Z,21.09
2022-08-12T05:33:56.454Z,21.22
2022-08-12T05:37:18.138Z,21.37
2022-08-12T05:40:44.914Z,21.57
2022-08-12T05:44:12.780Z,21.68
2022-08-12T05:47:44.839Z,21.60
2022-08-12T05:51:16.280Z,21.77
2022-08-12T05:54:57.173Z,22.09
2022-08-12T05:58:21.195Z,22.93
2022-08-12T06:02:11.715Z,23.37
2022-08-12T06:05:25.777Z,23.48
2022-08-12T06:08:52.680Z,23.31
2022-08-12T06:12:18.161Z,23.22
2022-08-12T06:15:42.833Z,23.29
2022-08-12T06:19:04.456Z,23.31
2022-08-12T06:22:26.854Z,23.31
2022-08-12T06:25:51.083Z,23.45
2022-08-12T06:30:07.449Z,23.62
2022-08-12T06:33:11.845Z,23.65
2022-08-12T06:36:44.247Z,23.90
2022-08-12T06:40:08.480Z,23.94
2022-08-12T06:43:30.976Z,24.04
2022-08-12T06:47:16.569Z,24.03
2022-08-12T06:50:40.144Z,24.07
2022-08-12T06:54:02.390Z,24.48
2022-08-12T06:58:05.629Z,24.68
2022-08-12T07:01:10.123Z,25.06
2022-08-12T07:04:38.030Z,25.16
2022-08-12T07:08:10.354Z,25.15
2022-08-12T07:11:33.804Z,25.07
2022-08-12T07:15:02.058Z,25.48
2022-08-12T07:18:33.005Z,25.65
2022-08-12T07:22:02.030Z,25.77
2022-08-12T07:25:40.341Z,25.68
2022-08-12T07:29:04.542Z,25.80
2022-08-12T07:32:29.562Z,26.10
2022-08-12T07:35:54.506Z,26.40
2022-08-12T07:39:18.350Z,26.80
2022-08-12T07:42:41.558Z,26.64
2022-08-12T07:46:07.793Z,27.01
2022-08-12T07:49:29.790Z,27.43
2022-08-12T07:52:56.661Z,27.66
2022-08-12T07:56:19.211Z,27.01
2022-08-12T07:59:40.813Z,27.31
2022-08-12T08:03:07.892Z,27.89
2022-08-12T08:06:32.998Z,27.57
2022-08-12T08:10:00.660Z,27.60
2022-08-12T08:13:22.495Z,27.70
2022-08-12T08:16:44.264Z,27.91
2022-08-12T08:20:10.446Z,28.34
2022-08-12T08:23:56.147Z,27.93
2022-08-12T08:27:22.113Z,28.07
2022-08-12T08:30:48.781Z,28.24
2022-08-12T08:34:33.765Z,28.82
2022-08-12T08:38:19.850Z,29.03
2022-08-12T08:42:20.400Z,29.24
2022-08-12T08:45:42.295Z,29.04
2022-08-12T08:49:06.226Z,29.06
2022-08-12T08:52:39.879Z,29.10
2022-08-12T08:56:05.725Z,29.18
2022-08-12T08:59:28.542Z,29.73
2022-08-12T09:02:58.863Z,29.68
2022-08-12T09:06:37.093Z,29.75
2022-08-12T09:10:03.707Z,30.20
2022-08-12T09:13:29.255Z,29.72
2022-08-12T09:17:10.535Z,29.73
2022-08-12T09:20:34.628Z,29.31
2022-08-12T09:24:06.148Z,29.37
2022-08-12T09:27:57.772Z,29.50
2022-08-12T09:32:07.740Z,28.63
2022-08-12T09:34:56.772Z,28.59
2022-08-12T09:38:27.968Z,28.94
2022-08-12T09:42:34.503Z,29.47
2022-08-12T09:46:11.814Z,29.07
2022-08-12T09:49:41.490Z,29.07
2022-08-12T09:53:14.905Z,29.06
2022-08-12T09:57:00.304Z,29.48
2022-08-12T10:00:28.266Z,29.93
2022-08-12T10:04:03.369Z,30.37
2022-08-12T10:07:28.689Z,30.74
2022-08-12T10:11:23.860Z,30.48
2022-08-12T10:14:50.002Z,31.00
2022-08-12T10:18:14.216Z,30.76
2022-08-12T10:21:37.970Z,31.21
2022-08-12T10:25:20.596Z,31.77
2022-08-12T10:29:03.436Z,31.73
2022-08-12T10:32:56.270Z,31.44
2022-08-12T10:36:18.554Z,31.25
2022-08-12T10:40:00.778Z,31.00
2022-08-12T10:43:55.326Z,30.48
2022-08-12T10:47:26.278Z,30.23
2022-08-12T10:52:03.660Z,30.47
2022-08-12T10:54:51.130Z,29.99
2022-08-12T10:58:28.285Z,30.17
2022-08-12T11:04:19.881Z,30.31
2022-08-12T11:07:06.104Z,29.86
2022-08-12T11:09:41.545Z,29.92
2022-08-12T11:13:09.298Z,30.12
2022-08-12T11:16:32.760Z,30.07
2022-08-12T11:19:54.366Z,30.23
2022-08-12T11:23:25.017Z,30.09
2022-08-12T11:27:00.203Z,29.69
2022-08-12T11:30:31.307Z,29.73
2022-08-12T11:34:06.868Z,29.76
2022-08-12T11:37:59.327Z,29.95
2022-08-12T11:41:31.031Z,30.26
2022-08-12T11:44:53.484Z,30.19
2022-08-12T11:48:15.684Z,29.78
2022-08-12T11:51:40.433Z,29.83
2022-08-12T11:55:02.003Z,30.14
2022-08-12T11:59:44.351Z,30.20
2022-08-12T12:02:09.141Z,30.64
2022-08-12T12:05:41.994Z,30.84
2022-08-12T12:09:08.161Z,30.40
2022-08-12T12:12:31.286Z,30.60
2022-08-12T12:15:53.790Z,30.86
2022-08-12T12:19:17.806Z,31.09
2022-08-12T12:22:45.153Z,31.09
2022-08-12T12:26:09.877Z,31.03
2022-08-12T12:30:13.802Z,30.63
2022-08-12T12:33:46.154Z,30.89
2022-08-12T12:37:26.974Z,30.75
2022-08-12T12:40:58.167Z,30.30
2022-08-12T12:44:25.886Z,29.98
2022-08-12T12:48:08.171Z,29.78
2022-08-12T12:51:49.399Z,29.72
2022-08-12T12:55:22.153Z,29.68
2022-08-12T12:58:49.731Z,29.68
2022-08-12T13:02:16.080Z,29.65
2022-08-12T13:05:57.094Z,29.58
2022-08-12T13:09:26.709Z,29.58
2022-08-12T13:12:58.227Z,29.65
2022-08-12T13:16:29.764Z,29.86
2022-08-12T13:19:54.712Z,30.20
2022-08-12T13:27:20.931Z,30.79
2022-08-12T13:30:42.508Z,31.00
2022-08-12T13:34:28.567Z,31.03
2022-08-12T13:37:58.048Z,30.67
2022-08-12T13:41:33.862Z,30.26
2022-08-12T13:44:55.493Z,30.02
2022-08-12T13:48:19.731Z,29.92
2022-08-12T13:51:42.532Z,30.05
2022-08-12T13:55:06.306Z,30.24
2022-08-12T13:58:28.471Z,30.43
2022-08-12T14:01:56.713Z,30.44
2022-08-12T14:05:31.123Z,30.07
2022-08-12T14:09:00.143Z,30.00
2022-08-12T14:12:53.058Z,29.88
2022-08-12T14:16:46.896Z,29.82
2022-08-12T14:20:15.760Z,30.02
2022-08-12T14:24:05.307Z,30.03
2022-08-12T14:28:03.301Z,29.89
2022-08-12T14:31:18.473Z,30.00
2022-08-12T14:34:40.507Z,30.09
2022-08-12T14:38:26.348Z,30.27
2022-08-12T14:41:57.062Z,30.30
2022-08-12T14:45:22.788Z,30.21
2022-08-12T14:48:51.003Z,30.17
2022-08-12T14:53:45.878Z,30.13
2022-08-12T14:59:58.221Z,30.09
2022-08-12T15:03:46.699Z,30.06
2022-08-12T15:07:34.290Z,30.03
2022-08-12T15:10:59.769Z,29.99
2022-08-12T15:14:27.540Z,30.10
2022-08-12T15:17:59.707Z,30.21
2022-08-12T15:22:38.133Z,30.27
2022-08-12T15:25:17.764Z,30.38
2022-08-12T15:28:43.036Z,30.47
2022-08-12T15:32:31.981Z,30.55
2022-08-12T15:35:55.675Z,30.53
2022-08-12T15:39:17.823Z,30.41
2022-08-12T15:42:39.583Z,30.26
2022-08-12T15:46:02.277Z,30.07
2022-08-12T15:49:23.823Z,29.83
2022-08-12T15:52:45.449Z,29.73
2022-08-12T15:56:12.709Z,29.59
2022-08-12T15:59:59.985Z,29.37
2022-08-12T16:03:19.243Z,29.21
2022-08-12T16:07:05.793Z,29.10
2022-08-12T16:10:33.899Z,28.97
2022-08-12T16:13:57.930Z,28.82
2022-08-12T16:17:41.319Z,28.76
2022-08-12T16:21:51.556Z,28.79
2022-08-12T16:24:54.295Z,28.72
2022-08-12T16:28:21.053Z,28.70
2022-08-12T16:31:53.868Z,28.70
2022-08-12T16:35:17.946Z,28.73
2022-08-12T16:38:43.446Z,28.79
2022-08-12T16:42:07.691Z,28.73
2022-08-12T16:46:23.284Z,28.75
2022-08-12T16:49:23.371Z,28.75
2022-08-12T16:52:49.993Z,28.67
2022-08-12T16:56:12.467Z,28.69
2022-08-12T16:59:54.557Z,28.60
2022-08-12T17:03:28.640Z,28.58
2022-08-12T17:06:53.392Z,28.53
2022-08-12T17:10:18.581Z,28.41
2022-08-12T17:13:59.503Z,28.31
2022-08-12T17:17:26.994Z,28.32
2022-08-12T17:21:07.868Z,28.29
2022-08-12T17:24:32.529Z,28.27
2022-08-12T17:27:57.082Z,28.19
2022-08-12T17:31:59.312Z,28.12
2022-08-12T17:35:29.563Z,28.01
2022-08-12T17:38:54.457Z,27.96
2022-08-12T17:42:33.040Z,27.89
2022-08-12T17:45:59.018Z,27.83
2022-08-12T17:50:03.562Z,27.79
2022-08-12T17:53:21.219Z,27.67
2022-08-12T17:56:43.581Z,27.57
2022-08-12T18:00:14.017Z,27.45
2022-08-12T18:04:04.447Z,27.29
2022-08-12T18:07:24.451Z,27.14
2022-08-12T18:11:11.918Z,27.08
2022-08-12T18:14:40.942Z,26.92
2022-08-12T18:18:05.980Z,26.80
2022-08-12T18:22:01.600Z,26.73
2022-08-12T18:26:14.791Z,26.63
2022-08-12T18:29:41.994Z,26.57
2022-08-12T18:33:05.511Z,26.51
2022-08-12T18:36:29.276Z,26.44
2022-08-12T18:40:28.692Z,26.36
2022-08-12T18:44:02.695Z,26.33
2022-08-12T18:47:49.763Z,26.28
2022-08-12T18:51:21.979Z,26.23
2022-08-12T18:55:02.182Z,26.16
2022-08-12T18:58:30.518Z,26.12
2022-08-12T19:02:19.598Z,26.06
2022-08-12T19:05:53.239Z,26.03
2022-08-12T19:09:19.538Z,26.02
2022-08-12T19:13:01.220Z,25.95
2022-08-12T19:16:23.626Z,25.84
2022-08-12T19:19:46.496Z,25.80
2022-08-12T19:23:16.816Z,25.67
2022-08-12T19:26:46.550Z,25.45
2022-08-12T19:30:45.355Z,25.35
2022-08-12T19:34:55.954Z,25.16
2022-08-12T19:38:03.668Z,25.10
2022-08-12T19:41:42.893Z,24.97
2022-08-12T19:45:14.041Z,24.93
2022-08-12T19:48:41.054Z,24.85
2022-08-12T19:52:13.053Z,24.76
2022-08-12T19:55:43.010Z,24.79
2022-08-12T19:59:43.477Z,24.73
2022-08-12T20:03:39.846Z,24.71
2022-08-12T20:06:55.504Z,24.67
2022-08-12T20:10:17.980Z,24.54
2022-08-12T20:13:44.123Z,24.54
2022-08-12T20:17:09.141Z,24.45
2022-08-12T20:20:35.369Z,24.40
2022-08-12T20:24:00.541Z,24.31
2022-08-12T20:27:29.071Z,24.30
2022-08-12T20:31:06.538Z,24.25
2022-08-12T20:34:32.519Z,24.14
2022-08-12T20:38:05.086Z,23.99
2022-08-12T20:41:36.175Z,23.87
2022-08-12T20:44:59.719Z,23.94
2022-08-12T20:48:25.500Z,23.87
2022-08-12T20:51:56.156Z,23.80
2022-08-12T20:55:19.316Z,23.86
2022-08-12T20:58:43.001Z,23.79
2022-08-12T21:02:05.865Z,23.80
2022-08-12T21:06:12.838Z,23.89
2022-08-12T21:09:32.207Z,24.03
2022-08-12T21:13:00.332Z,24.03
2022-08-12T21:16:35.249Z,24.06
2022-08-12T21:20:06.090Z,24.04
2022-08-12T21:23:37.346Z,24.18
2022-08-12T21:27:07.402Z,24.01
2022-08-12T21:30:37.408Z,23.90
2022-08-12T21:34:08.895Z,23.82
2022-08-12T21:37:31.838Z,23.65
2022-08-12T21:41:09.186Z,23.80
2022-08-12T21:45:46.782Z,23.70
2022-08-12T21:48:24.529Z,23.55
2022-08-12T21:51:56.462Z,23.52
2022-08-12T21:55:20.603Z,23.58
2022-08-12T21:58:42.225Z,23.59
2022-08-12T22:02:30.903Z,23.53
2022-08-12T22:06:13.865Z,23.49
2022-08-12T22:09:47.586Z,23.48
2022-08-12T22:14:02.114Z,23.46
2022-08-12T22:17:01.514Z,23.35
2022-08-12T22:20:29.806Z,23.32
2022-08-12T22:24:04.953Z,23.37
2022-08-12T22:27:33.099Z,23.28
2022-08-12T22:31:10.760Z,23.28
2022-08-12T22:34:33.251Z,23.29
2022-08-12T22:37:55.759Z,23.19
2022-08-12T22:41:36.523Z,23.12
2022-08-12T22:45:23.296Z,23.12
2022-08-12T22:48:50.506Z,23.14
2022-08-12T22:52:14.366Z,23.15
2022-08-12T22:55:59.889Z,23.21
2022-08-12T22:59:27.503Z,23.22
2022-08-12T23:03:09.020Z,23.31
2022-08-12T23:06:58.351Z,23.19
2022-08-12T23:10:21.356Z,23.07
2022-08-12T23:13:55.084Z,23.04
2022-08-12T23:17:40.918Z,23.06
2022-08-12T23:21:03.048Z,23.07
2022-08-12T23:24:25.952Z,23.06
2022-08-12T23:28:06.364Z,23.04
2022-08-12T23:32:03.416Z,23.10
2022-08-12T23:35:25.815Z,23.10
2022-08-12T23:40:15.743Z,23.14
2022-08-12T23:42:55.262Z,23.08
2022-08-12T23:46:25.691Z,23.07
2022-08-12T23:49:57.834Z,23.08
2022-08-12T23:53:32.499Z,23.04
2022-08-12T23:56:55.999Z,22.94
